Time;durP1;ratioP1;P1;durP2;ratioP2;P2;SDS_P1;SDS_P2;PMS_P1;PMS_P2;Temp;Humidity;BMP_temperature;BMP_pressure;BME280_temperature;BME280_humidity;BME280_pressure;Samples;Min_cycle;Max_cycle;Signal;HPM_P1;HPM_P2
2021/06/20 00:01:56;;;;;;;10.32;9.32;;;23.20;99.90;;;22.76;79.83;100327.97;5067277;28;20055;-57
2021/06/20 00:04:23;;;;;;;10.27;9.15;;;23.20;99.90;;;22.80;79.72;100323.84;5067268;28;20048;-56
2021/06/20 00:06:50;;;;;;;11.02;9.00;;;23.30;99.90;;;22.78;80.26;100323.28;5063879;28;20040;-57
2021/06/20 00:09:19;;;;;;;9.60;8.60;;;23.30;99.90;;;22.74;80.62;100324.75;5067407;28;20484;-60
2021/06/20 00:11:47;;;;;;;13.23;9.07;;;23.30;99.90;;;22.69;80.82;100324.59;5065514;28;20040;-53
2021/06/20 00:14:14;;;;;;;9.52;8.73;;;23.20;99.90;;;22.66;80.72;100324.28;5067153;28;20041;-58
2021/06/20 00:16:41;;;;;;;9.82;8.43;;;23.20;99.90;;;22.60;81.11;100319.88;5064545;28;20166;-59
2021/06/20 00:19:08;;;;;;;10.35;9.35;;;23.10;99.90;;;22.70;80.44;100312.13;5066993;28;20033;-55
2021/06/20 00:21:35;;;;;;;13.00;8.98;;;23.20;99.90;;;22.63;80.68;100312.25;5065711;28;20051;-57
2021/06/20 00:24:03;;;;;;;9.80;8.45;;;23.20;99.90;;;22.58;80.86;100304.16;5066953;28;20582;-56
2021/06/20 00:26:29;;;;;;;10.00;9.10;;;23.10;99.90;;;22.55;80.90;100309.94;5064298;28;20044;-53
2021/06/20 00:28:55;;;;;;;15.25;8.70;;;23.10;99.90;;;22.55;81.25;100299.31;5064177;28;20376;-52
2021/06/20 00:31:21;;;;;;;12.45;9.82;;;23.10;99.90;;;22.52;81.16;100300.56;5066051;28;20118;-59
2021/06/20 00:33:47;;;;;;;15.82;10.15;;;23.00;99.90;;;22.53;80.64;100301.38;5064087;28;20119;-54
2021/06/20 00:36:13;;;;;;;10.27;8.65;;;23.00;99.90;;;22.54;80.51;100300.34;5067288;28;20503;-58
2021/06/20 00:38:39;;;;;;;10.52;8.98;;;23.00;99.90;;;22.56;80.11;100303.59;5065187;28;20055;-56
2021/06/20 00:41:06;;;;;;;11.02;9.93;;;23.00;99.90;;;22.60;79.90;100303.94;5066128;28;20131;-57
2021/06/20 00:43:32;;;;;;;12.35;9.95;;;23.10;99.90;;;22.57;80.09;100297.25;5063278;28;20044;-57
2021/06/20 00:45:58;;;;;;;10.73;9.82;;;23.00;99.90;;;22.48;80.62;100293.28;5066691;28;20025;-58
2021/06/20 00:48:24;;;;;;;16.13;11.20;;;23.00;99.90;;;22.33;82.08;100279.59;5070992;28;20035;-58
2021/06/20 00:50:50;;;;;;;11.07;9.98;;;22.90;99.90;;;22.34;82.42;100270.59;5084940;28;20419;-56
2021/06/20 00:53:18;;;;;;;12.27;11.00;;;22.90;99.90;;;22.44;81.87;100277.00;5070528;28;20110;-56
2021/06/20 00:55:45;;;;;;;11.85;10.65;;;22.90;99.90;;;22.52;81.73;100270.56;5084662;28;20028;-54
2021/06/20 00:58:11;;;;;;;14.75;11.23;;;23.00;99.90;;;22.52;81.82;100286.47;5082215;28;20102;-58
2021/06/20 01:00:37;;;;;;;13.63;12.23;;;23.00;99.90;;;22.28;83.07;100272.31;5069968;28;20481;-57
2021/06/20 01:03:06;;;;;;;13.27;11.07;;;22.90;99.90;;;22.23;83.80;100282.78;5085735;28;20090;-55
2021/06/20 01:05:32;;;;;;;14.73;11.45;;;22.80;99.90;;;22.25;83.36;100266.66;5084657;28;20072;-55
2021/06/20 01:07:59;;;;;;;11.77;10.52;;;22.80;99.90;;;22.28;83.27;100266.19;5069409;28;20058;-54
2021/06/20 01:10:30;;;;;;;11.82;10.82;;;22.80;99.90;;;22.27;82.82;100264.59;5069491;28;20115;-51
2021/06/20 01:12:57;;;;;;;13.85;11.70;;;22.80;99.90;;;22.23;83.41;100271.38;5067496;28;20040;-54
2021/06/20 01:15:23;;;;;;;15.48;12.45;;;22.70;99.90;;;22.14;83.27;100269.06;5068862;28;20067;-57
2021/06/20 01:17:49;;;;;;;18.42;12.18;;;22.70;99.90;;;22.05;83.90;100265.09;5084045;28;20044;-58
2021/06/20 01:20:19;;;;;;;13.90;11.32;;;22.60;99.90;;;22.00;84.22;100264.94;5070429;28;20040;-51
2021/06/20 01:22:48;;;;;;;12.57;11.32;;;22.60;99.90;;;21.99;84.37;100271.25;5068021;28;20561;-59
2021/06/20 01:25:20;;;;;;;11.77;9.88;;;22.50;99.90;;;22.01;84.02;100279.00;5070177;28;20093;-59
2021/06/20 01:27:54;;;;;;;12.10;10.90;;;22.50;99.90;;;22.04;83.60;100282.03;5081692;28;20097;-57
2021/06/20 01:30:25;;;;;;;11.80;10.18;;;22.50;99.90;;;22.14;83.03;100277.03;5066007;28;20045;-52
2021/06/20 01:32:53;;;;;;;11.88;10.48;;;22.50;99.90;;;22.16;82.84;100274.16;5067538;28;20175;-54
2021/06/20 01:35:19;;;;;;;12.60;11.50;;;22.60;99.90;;;22.14;82.98;100268.25;5068519;28;20052;-60
2021/06/20 01:37:46;;;;;;;14.30;11.30;;;22.60;99.90;;;22.07;83.46;100265.69;5067847;28;20512;-56
2021/06/20 01:40:15;;;;;;;12.65;11.43;;;22.60;99.90;;;21.98;84.00;100267.00;5068776;28;20040;-58
2021/06/20 01:42:42;;;;;;;12.80;11.43;;;22.50;99.90;;;21.96;84.52;100271.72;5083619;28;20340;-55
2021/06/20 01:45:10;;;;;;;13.10;11.43;;;22.50;99.90;;;21.99;84.77;100270.44;5067902;28;20048;-56
2021/06/20 01:47:37;;;;;;;14.85;12.23;;;22.50;99.90;;;21.96;84.61;100263.75;5067118;28;20066;-56
2021/06/20 01:50:09;;;;;;;13.60;11.93;;;22.50;99.90;;;21.94;84.96;100263.16;5068600;28;20041;-57
2021/06/20 01:52:36;;;;;;;12.02;10.93;;;22.50;99.90;;;21.91;85.20;100268.91;5069640;28;20196;-55
2021/06/20 01:55:04;;;;;;;12.95;11.65;;;22.40;99.90;;;21.87;85.39;100273.03;5068099;28;20074;-58
2021/06/20 01:57:33;;;;;;;13.10;11.25;;;22.40;99.90;;;21.86;85.22;100269.59;5067473;28;20369;-62
2021/06/20 02:00:03;;;;;;;13.20;11.80;;;22.40;99.90;;;21.89;85.32;100270.97;5068001;28;20130;-55
2021/06/20 02:02:29;;;;;;;14.15;11.95;;;22.30;99.90;;;21.94;85.21;100283.56;5069797;28;20052;-54
2021/06/20 02:04:56;;;;;;;12.88;11.45;;;22.40;99.90;;;21.95;85.19;100287.84;5067815;28;20048;-59
2021/06/20 02:07:27;;;;;;;13.50;12.10;;;22.40;99.90;;;21.94;85.90;100284.38;5069457;28;20028;-57
2021/06/20 02:09:55;;;;;;;14.45;12.18;;;22.40;99.90;;;21.91;86.03;100279.53;5068164;28;20518;-54
2021/06/20 02:12:24;;;;;;;15.00;13.50;;;22.40;99.90;;;21.87;85.96;100288.94;5068261;28;20032;-58
2021/06/20 02:14:52;;;;;;;14.32;12.93;;;22.40;99.90;;;21.84;86.50;100292.06;5067717;28;20131;-57
2021/06/20 02:17:28;;;;;;;14.50;11.93;;;22.30;99.90;;;21.81;86.68;100293.31;5068283;28;20361;-57
2021/06/20 02:20:13;;;;;;;13.98;12.43;;;22.30;99.90;;;21.80;87.32;100296.16;5056463;28;20052;-56
2021/06/20 02:22:41;;;;;;;14.37;12.03;;;22.30;99.90;;;21.80;86.04;100293.53;5068396;28;20145;-56
2021/06/20 02:25:10;;;;;;;14.40;12.77;;;22.30;99.90;;;21.81;86.10;100300.44;5067358;28;20511;-57
2021/06/20 02:27:36;;;;;;;14.07;12.13;;;22.30;99.90;;;21.83;86.18;100298.38;5067579;28;20086;-57
2021/06/20 02:30:04;;;;;;;16.20;12.27;;;22.30;99.90;;;21.82;86.44;100296.75;5066041;28;20479;-58
2021/06/20 02:32:30;;;;;;;18.83;12.70;;;22.30;99.90;;;21.80;86.86;100290.88;5083020;28;20040;-58
2021/06/20 02:34:56;;;;;;;14.20;12.90;;;22.30;99.90;;;21.73;87.04;100300.78;5084148;28;20098;-53
2021/06/20 02:37:23;;;;;;;15.38;13.45;;;22.20;99.90;;;21.74;86.94;100297.09;5083217;28;20437;-52
2021/06/20 02:39:50;;;;;;;15.18;12.38;;;22.20;99.90;;;21.74;87.02;100294.44;5067409;28;20384;-58
2021/06/20 02:42:17;;;;;;;15.18;12.30;;;22.30;99.90;;;21.76;86.50;100300.28;5067593;28;20341;-60
2021/06/20 02:44:45;;;;;;;12.43;11.25;;;22.20;99.90;;;21.78;85.86;100299.03;5066660;28;20028;-59
2021/06/20 02:47:11;;;;;;;13.05;11.75;;;22.30;99.90;;;21.80;85.85;100304.13;5067344;28;20032;-55
2021/06/20 02:49:39;;;;;;;12.85;11.10;;;22.30;99.90;;;21.80;86.04;100296.97;5066887;28;20061;-59
2021/06/20 02:52:08;;;;;;;20.60;11.70;;;22.30;99.90;;;21.85;85.25;100299.78;5083503;28;20064;-57
2021/06/20 02:54:34;;;;;;;12.93;11.60;;;22.30;99.90;;;21.94;85.02;100289.69;5065815;28;20037;-56
2021/06/20 02:59:35;;;;;;;;;;;22.50;99.90;;;22.03;84.19;100293.69;5097084;22;20374;-58
2021/06/20 03:02:01;;;;;;;17.38;12.07;;;22.50;99.90;;;21.96;84.19;100287.63;5088663;28;19923;-57
2021/06/20 03:04:27;;;;;;;12.93;11.57;;;22.50;99.90;;;21.95;84.39;100288.66;5088282;28;20031;-58
2021/06/20 03:06:53;;;;;;;12.25;11.05;;;22.40;99.90;;;21.91;84.75;100298.09;5088236;28;20032;-61
2021/06/20 03:09:19;;;;;;;13.85;11.38;;;22.40;99.90;;;21.92;84.73;100301.56;5087800;28;20486;-55
2021/06/20 03:11:45;;;;;;;14.18;12.23;;;22.40;99.90;;;21.91;85.09;100299.94;5088353;28;20032;-58
2021/06/20 03:14:14;;;;;;;13.20;11.90;;;22.40;99.90;;;21.91;85.38;100295.44;5088385;28;20217;-57
2021/06/20 03:16:42;;;;;;;14.10;12.57;;;22.40;99.90;;;21.86;85.86;100306.72;5088146;28;20586;-57
2021/06/20 03:19:09;;;;;;;13.98;12.57;;;22.40;99.90;;;21.79;86.04;100305.16;5088034;28;20032;-60
2021/06/20 03:21:35;;;;;;;14.45;12.90;;;22.30;99.90;;;21.77;86.09;100305.38;5087839;28;20066;-54
2021/06/20 03:24:02;;;;;;;15.88;13.20;;;22.30;99.90;;;21.73;86.48;100300.78;5088041;28;20092;-56
2021/06/20 03:26:28;;;;;;;15.13;13.73;;;22.30;99.90;;;21.72;87.07;100299.16;5088181;28;20052;-53
2021/06/20 03:28:56;;;;;;;14.95;13.00;;;22.20;99.90;;;21.69;87.24;100304.91;5087930;28;20478;-51
2021/06/20 03:31:23;;;;;;;15.48;12.32;;;22.20;99.90;;;21.64;87.10;100304.75;5088348;28;20115;-60
2021/06/20 03:33:49;;;;;;;17.27;11.95;;;22.20;99.90;;;21.68;86.92;100304.09;5087807;28;20601;-55
2021/06/20 03:36:15;;;;;;;14.25;12.75;;;22.20;99.90;;;21.70;86.84;100298.56;5087827;28;20036;-60
2021/06/20 03:38:41;;;;;;;14.02;12.63;;;22.20;99.90;;;21.70;87.07;100301.22;5088018;28;20043;-59
2021/06/20 03:41:09;;;;;;;16.48;12.05;;;22.20;99.90;;;21.73;86.93;100306.06;5087984;28;20028;-61
2021/06/20 03:43:35;;;;;;;13.63;12.15;;;22.20;99.90;;;21.75;86.66;100304.78;5087770;28;20032;-57
2021/06/20 03:46:01;;;;;;;13.43;12.02;;;22.20;99.90;;;21.83;86.16;100311.66;5087698;28;20031;-60
2021/06/20 03:48:27;;;;;;;12.80;11.48;;;22.30;99.90;;;21.93;85.49;100311.94;5087878;28;20406;-58
2021/06/20 03:50:53;;;;;;;13.30;10.63;;;22.40;99.90;;;22.01;84.84;100313.47;5087870;28;20086;-53
2021/06/20 03:53:19;;;;;;;13.02;10.40;;;22.50;99.90;;;21.98;84.64;100308.63;5087618;28;20171;-60
2021/06/20 03:55:45;;;;;;;14.48;10.65;;;22.50;99.90;;;21.99;83.86;100303.09;5087798;28;20040;-57
2021/06/20 03:58:11;;;;;;;12.60;10.73;;;22.50;99.90;;;22.09;83.66;100300.75;5087646;28;20075;-59
2021/06/20 04:00:38;;;;;;;11.90;10.70;;;22.60;99.90;;;22.08;83.35;100303.63;5087497;28;20421;-60
2021/06/20 04:03:05;;;;;;;14.77;10.52;;;22.60;99.90;;;21.96;83.70;100300.88;5087275;28;20074;-61
2021/06/20 04:05:33;;;;;;;12.02;10.73;;;22.60;99.90;;;22.06;82.77;100306.50;5066253;28;20028;-59
2021/06/20 04:08:01;;;;;;;11.77;10.25;;;22.60;99.90;;;22.25;82.36;100303.81;5087626;28;20035;-54
2021/06/20 04:10:27;;;;;;;13.15;9.63;;;22.70;99.90;;;22.46;81.44;100300.66;5087354;28;20036;-57
2021/06/20 04:12:54;;;;;;;10.98;9.80;;;23.00;99.90;;;22.66;80.60;100311.81;5087564;28;20028;-59
2021/06/20 04:15:20;;;;;;;13.68;10.18;;;23.20;99.90;;;22.87;80.03;100301.69;5069085;28;20067;-57
2021/06/20 04:17:46;;;;;;;11.82;10.38;;;23.50;99.90;;;23.09;78.89;100308.09;5087459;28;20032;-56
2021/06/20 04:20:13;;;;;;;11.15;10.00;;;23.80;99.90;;;23.20;78.22;100306.44;5088606;28;20513;-56
2021/06/20 04:22:43;;;;;;;11.40;10.02;;;24.00;99.90;;;23.43;77.40;100301.13;5091483;28;20081;-61
2021/06/20 04:25:15;;;;;;;9.93;8.93;;;24.20;99.90;;;23.63;76.37;100314.88;5091375;28;20517;-54
2021/06/20 04:27:44;;;;;;;13.15;10.48;;;24.50;99.90;;;23.78;75.88;100317.06;5091602;28;20048;-59
2021/06/20 04:30:13;;;;;;;11.93;9.00;;;24.70;99.90;;;24.12;74.82;100321.47;5091105;28;20024;-59
2021/06/20 04:32:44;;;;;;;9.93;8.93;;;25.10;99.90;;;24.57;73.28;100319.94;5072965;28;20032;-59
2021/06/20 04:35:11;;;;;;;18.20;11.23;;;25.60;99.90;;;24.91;72.20;100320.78;5091410;28;20030;-55
2021/06/20 04:37:38;;;;;;;9.43;8.63;;;26.00;99.90;;;25.20;70.96;100311.66;5072972;28;20032;-58
2021/06/20 04:40:08;;;;;;;11.02;9.93;;;26.30;99.90;;;25.23;70.59;100318.34;5089762;28;20032;-57
2021/06/20 04:42:37;;;;;;;11.00;9.35;;;26.50;99.90;;;24.90;72.30;100324.50;5072632;28;20114;-57
2021/06/20 04:45:05;;;;;;;11.00;9.85;;;26.30;99.90;;;24.96;72.17;100320.88;5072703;28;20217;-57
2021/06/20 04:47:32;;;;;;;10.32;9.43;;;26.20;99.90;;;24.53;73.68;100311.63;5091181;28;20382;-58
2021/06/20 04:49:59;;;;;;;10.43;9.38;;;25.90;99.90;;;25.02;71.64;100309.25;5090768;28;20039;-57
2021/06/20 04:52:25;;;;;;;9.60;8.45;;;26.10;99.90;;;25.31;70.69;100302.75;5091007;28;20513;-55
2021/06/20 04:54:52;;;;;;;12.23;8.80;;;26.60;99.90;;;25.40;70.21;100308.47;5090872;28;20398;-61
2021/06/20 04:57:22;;;;;;;10.70;9.57;;;26.60;99.90;;;26.00;68.19;100305.78;5090536;28;20070;-58
2021/06/20 04:59:50;;;;;;;12.00;9.20;;;27.10;99.90;;;26.01;68.09;100307.38;5090715;28;20052;-58
2021/06/20 05:02:16;;;;;;;9.38;8.48;;;27.50;99.90;;;26.10;67.54;100305.91;5090947;28;20036;-54
2021/06/20 05:04:43;;;;;;;9.32;8.45;;;27.70;99.90;;;26.93;64.49;100308.31;5090553;28;20149;-58
2021/06/20 05:07:10;;;;;;;10.68;8.57;;;28.30;99.90;;;27.24;63.64;100307.47;5090603;28;20035;-56
2021/06/20 05:09:37;;;;;;;9.35;8.48;;;28.80;99.90;;;27.80;62.22;100307.78;5089918;28;20038;-61
2021/06/20 05:12:06;;;;;;;9.05;8.25;;;29.40;99.30;;;27.81;61.70;100308.59;5089174;28;20143;-55
2021/06/20 05:14:33;;;;;;;8.65;7.85;;;29.60;98.00;;;27.98;61.12;100317.19;5072044;28;20457;-60
2021/06/20 05:16:59;;;;;;;10.55;8.43;;;29.80;97.30;;;27.85;61.71;100313.16;5090388;28;20036;-58
2021/06/20 05:19:26;;;;;;;11.02;8.02;;;29.90;97.00;;;28.65;59.58;100314.41;5090285;28;20066;-54
2021/06/20 05:21:52;;;;;;;9.65;7.97;;;30.70;95.20;;;28.70;59.21;100298.34;5090389;28;20481;-55
2021/06/20 05:24:18;;;;;;;8.45;7.75;;;30.90;93.70;;;28.65;59.72;100317.09;5090176;28;20032;-59
2021/06/20 05:26:44;;;;;;;10.60;8.07;;;31.00;93.50;;;28.58;59.87;100321.91;5088885;28;20031;-60
2021/06/20 05:29:10;;;;;;;10.32;9.10;;;30.90;93.00;;;28.62;59.40;100320.31;5071963;28;20486;-60
2021/06/20 05:31:36;;;;;;;11.27;8.57;;;30.60;93.50;;;28.59;59.56;100320.84;5089919;28;20064;-54
2021/06/20 05:34:03;;;;;;;11.23;8.43;;;30.70;93.50;;;28.39;60.20;100323.47;5077525;28;20090;-54
2021/06/20 05:36:29;;;;;;;9.07;8.18;;;30.60;93.30;;;28.34;60.36;100326.19;5068686;28;20328;-57
2021/06/20 05:38:55;;;;;;;8.43;7.63;;;30.60;93.00;;;27.78;61.87;100330.53;5068193;28;20040;-57
2021/06/20 05:41:21;;;;;;;9.40;8.50;;;29.90;93.90;;;26.83;64.79;100329.59;5068525;28;20033;-58
2021/06/20 05:43:46;;;;;;;11.15;8.00;;;28.70;96.30;;;27.22;63.62;100330.19;5049605;28;20032;-54
2021/06/20 05:46:12;;;;;;;9.65;8.63;;;28.60;97.50;;;26.89;64.53;100325.91;5068711;28;20046;-58
2021/06/20 05:48:39;;;;;;;11.32;8.75;;;28.50;97.70;;;26.68;65.29;100331.06;5069149;28;20470;-59
2021/06/20 05:51:05;;;;;;;9.32;8.35;;;28.20;98.70;;;26.32;66.51;100329.13;5067543;28;20041;-58
2021/06/20 05:53:31;;;;;;;8.65;7.95;;;27.90;99.50;;;26.33;66.41;100315.53;5068134;28;20025;-55
2021/06/20 05:55:57;;;;;;;10.85;8.93;;;27.70;99.90;;;26.73;65.22;100316.94;5069378;28;20036;-54
2021/06/20 05:58:23;;;;;;;10.75;8.80;;;27.80;99.90;;;26.91;64.37;100311.22;5066838;28;20084;-57
2021/06/20 06:00:50;;;;;;;8.32;7.53;;;28.20;99.90;;;27.40;63.16;100303.81;5085199;28;20044;-57
2021/06/20 06:03:15;;;;;;;10.25;9.20;;;28.60;99.40;;;27.60;62.47;100307.69;5081164;28;20043;-59
2021/06/20 06:05:42;;;;;;;10.65;8.35;;;29.10;98.50;;;27.74;62.24;100309.63;5071570;28;20040;-55
2021/06/20 06:08:08;;;;;;;8.85;7.95;;;29.20;98.20;;;28.39;60.53;100310.88;5087872;28;20032;-58
2021/06/20 06:10:34;;;;;;;8.63;7.72;;;29.80;97.00;;;29.22;58.16;100316.00;5087283;28;20064;-55
2021/06/20 06:13:00;;;;;;;10.77;7.43;;;30.60;95.80;;;29.71;56.82;100320.72;5089378;28;20138;-56
2021/06/20 06:15:31;;;;;;;8.90;7.38;;;31.30;94.00;;;30.12;55.19;100321.38;5083513;28;20031;-56
2021/06/20 06:17:58;;;;;;;8.45;7.65;;;31.80;92.10;;;30.18;55.36;100320.25;5087190;28;20038;-56
2021/06/20 06:20:24;;;;;;;10.48;8.73;;;31.90;91.40;;;30.41;54.15;100321.44;5089273;28;20036;-58
2021/06/20 06:22:50;;;;;;;9.48;6.90;;;32.10;90.60;;;30.71;53.71;100316.97;5089479;28;20081;-55
2021/06/20 06:25:17;;;;;;;8.70;7.70;;;32.50;89.40;;;31.00;53.50;100325.84;5089109;28;20036;-57
2021/06/20 06:27:44;;;;;;;11.63;7.60;;;32.80;87.20;;;31.27;52.76;100322.63;5089302;28;20036;-54
2021/06/20 06:30:11;;;;;;;8.10;7.30;;;33.20;84.80;;;30.91;52.82;100339.09;5087543;28;20059;-56
2021/06/20 06:32:42;;;;;;;8.40;7.53;;;32.80;84.80;;;30.34;54.98;100345.13;5092089;28;20080;-56
2021/06/20 06:35:09;;;;;;;8.15;7.38;;;32.00;87.60;;;30.17;55.80;100347.41;5068612;28;20041;-57
2021/06/20 06:37:36;;;;;;;10.02;8.00;;;31.80;89.70;;;30.11;54.98;100356.56;5064806;28;20118;-57
2021/06/20 06:40:04;;;;;;;10.25;7.28;;;32.00;86.90;;;29.67;55.58;100358.06;5085266;28;20046;-57
2021/06/20 06:42:30;;;;;;;8.48;7.47;;;31.50;87.60;;;29.40;56.65;100365.59;5108167;28;20204;-56
2021/06/20 06:44:57;;;;;;;7.38;6.68;;;31.00;89.80;;;29.56;56.67;100366.41;5098913;28;20043;-57
2021/06/20 06:47:24;;;;;;;7.95;7.25;;;30.90;90.50;;;29.65;56.34;100364.78;5067405;28;20040;-57
2021/06/20 06:49:51;;;;;;;7.80;7.10;;;31.00;90.90;;;29.78;55.90;100369.53;5069818;28;20074;-56
2021/06/20 06:52:17;;;;;;;9.40;8.27;;;31.00;90.90;;;29.79;55.70;100365.78;5087867;28;20034;-57
2021/06/20 06:54:51;;;;;;;8.20;7.38;;;31.00;90.80;;;29.66;56.64;100371.75;5087492;28;20043;-58
2021/06/20 06:57:22;;;;;;;8.10;7.13;;;31.00;90.90;;;29.27;57.24;100372.34;5087449;28;20031;-56
2021/06/20 06:59:51;;;;;;;8.98;7.55;;;30.50;91.20;;;28.85;58.12;100371.81;5088412;28;20071;-56
2021/06/20 07:02:18;;;;;;;11.18;8.23;;;30.00;92.40;;;28.32;59.80;100368.50;5087177;28;20028;-56
2021/06/20 07:04:45;;;;;;;8.52;7.72;;;29.50;93.50;;;28.07;60.44;100366.50;5087437;28;20565;-55
2021/06/20 07:07:12;;;;;;;8.63;7.78;;;29.00;94.40;;;28.14;60.21;100360.91;5087266;28;20055;-57
2021/06/20 07:09:38;;;;;;;9.20;8.30;;;29.10;94.60;;;28.07;60.55;100353.91;5059788;28;20465;-53
2021/06/20 07:12:04;;;;;;;10.50;8.25;;;29.10;94.80;;;27.86;60.87;100341.53;5070069;28;20578;-56
2021/06/20 07:14:34;;;;;;;8.88;8.07;;;28.90;95.20;;;28.30;59.13;100343.84;5090032;28;20042;-57
2021/06/20 07:17:05;;;;;;;8.75;7.95;;;29.10;95.10;;;28.34;59.22;100339.56;5065935;28;20119;-56
2021/06/20 07:19:34;;;;;;;9.70;8.80;;;29.30;94.80;;;28.12;59.98;100338.94;5085043;28;20070;-55
2021/06/20 07:22:01;;;;;;;9.82;8.38;;;29.20;95.00;;;28.51;58.76;100328.59;5069582;28;20032;-55
2021/06/20 07:24:27;;;;;;;10.85;8.57;;;29.20;95.10;;;28.83;57.66;100333.75;5087889;28;20032;-54
2021/06/20 07:26:53;;;;;;;9.00;8.13;;;29.40;94.80;;;28.66;58.02;100316.03;5087886;28;20402;-55
2021/06/20 07:29:19;;;;;;;9.45;8.20;;;29.50;94.40;;;28.54;58.54;100318.16;5087907;28;20059;-57
2021/06/20 07:31:45;;;;;;;9.10;8.40;;;29.40;94.70;;;28.78;57.34;100317.63;5087777;28;20028;-57
2021/06/20 07:34:11;;;;;;;10.30;8.60;;;29.40;94.80;;;28.77;57.91;100311.47;5087774;28;20032;-58
2021/06/20 07:36:37;;;;;;;10.05;8.23;;;29.40;94.80;;;28.87;57.60;100311.47;5088153;28;20056;-55
2021/06/20 07:39:03;;;;;;;10.27;8.35;;;29.40;94.70;;;29.08;56.92;100308.78;5087668;28;20170;-56
2021/06/20 07:41:29;;;;;;;8.18;7.38;;;29.60;94.40;;;29.48;54.88;100291.81;5087515;28;20089;-55
2021/06/20 07:43:55;;;;;;;9.20;8.10;;;30.00;93.40;;;29.41;54.78;100292.09;5087257;28;20032;-53
2021/06/20 07:46:21;;;;;;;7.55;6.82;;;30.20;92.40;;;29.44;54.84;100288.06;5087403;28;20032;-56
2021/06/20 07:48:47;;;;;;;9.25;8.35;;;30.30;91.90;;;29.70;54.08;100297.66;5087590;28;20056;-55
2021/06/20 07:51:13;;;;;;;8.02;6.75;;;30.40;91.60;;;29.77;54.19;100298.16;5087339;28;20525;-62
2021/06/20 07:53:39;;;;;;;9.40;7.78;;;30.50;91.60;;;29.97;53.71;100302.59;5086782;28;20059;-64
2021/06/20 07:56:05;;;;;;;10.10;7.30;;;30.80;91.30;;;30.23;53.18;100306.00;5085993;28;20126;-61
2021/06/20 07:58:31;;;;;;;9.23;7.93;;;31.00;90.80;;;30.63;51.71;100308.41;5086907;28;20201;-61
2021/06/20 08:00:57;;;;;;;8.70;7.80;;;31.30;90.00;;;30.95;50.63;100297.09;5087386;28;20055;-63
2021/06/20 08:03:23;;;;;;;9.57;7.88;;;31.70;87.60;;;31.40;50.07;100292.34;5086451;28;20035;-63
2021/06/20 08:05:49;;;;;;;8.55;7.68;;;32.20;86.30;;;32.00;48.54;100276.53;5087809;28;20412;-62
2021/06/20 08:08:17;;;;;;;8.85;7.18;;;32.60;84.40;;;32.29;48.40;100262.91;5087557;28;20531;-64
2021/06/20 08:10:43;;;;;;;10.07;6.20;;;33.10;83.30;;;32.44;48.02;100262.69;5085482;28;20452;-62
2021/06/20 08:13:10;;;;;;;12.05;7.53;;;33.40;82.40;;;32.14;48.62;100258.53;5085773;28;20036;-54
2021/06/20 08:15:36;;;;;;;10.43;7.45;;;33.20;80.90;;;31.94;49.26;100262.34;5076878;28;20024;-53
2021/06/20 08:18:02;;;;;;;8.75;7.18;;;33.00;81.30;;;31.76;49.45;100260.41;5066723;28;20025;-54
2021/06/20 08:20:28;;;;;;;8.85;7.95;;;32.80;82.00;;;31.86;48.86;100241.44;5067057;28;20111;-62
2021/06/20 08:22:54;;;;;;;11.80;7.70;;;32.80;81.90;;;31.65;49.68;100245.47;5067073;28;20115;-62
2021/06/20 08:25:20;;;;;;;7.95;7.25;;;32.80;81.40;;;31.79;49.19;100241.00;5067228;28;20844;-61
2021/06/20 08:27:46;;;;;;;14.23;7.55;;;32.70;81.00;;;32.26;48.05;100234.66;5066774;28;20082;-63
2021/06/20 08:30:14;;;;;;;11.48;7.22;;;33.00;80.10;;;32.67;48.26;100229.38;5066760;28;20040;-62
2021/06/20 08:32:40;;;;;;;8.90;7.53;;;33.40;80.60;;;32.66;47.95;100230.47;5066958;28;20366;-63
2021/06/20 08:35:07;;;;;;;9.05;8.15;;;33.60;80.00;;;32.19;48.60;100228.00;5066955;28;20361;-64
2021/06/20 08:37:34;;;;;;;12.07;8.57;;;33.30;78.80;;;31.88;49.54;100223.09;5066789;28;20379;-63
2021/06/20 08:40:00;;;;;;;7.97;7.15;;;33.00;80.20;;;32.45;48.03;100213.06;5066662;28;20499;-61
2021/06/20 08:42:26;;;;;;;10.75;7.75;;;33.20;79.70;;;33.21;46.52;100200.03;5066869;28;20050;-60
2021/06/20 08:44:52;;;;;;;8.52;7.28;;;33.70;78.50;;;33.73;45.88;100195.97;5066956;28;20487;-61
2021/06/20 08:47:18;;;;;;;8.38;7.50;;;34.30;77.40;;;33.80;45.62;100187.47;5067572;28;20102;-60
2021/06/20 08:49:45;;;;;;;9.55;7.45;;;34.60;76.50;;;33.65;46.47;100196.69;5067196;28;20206;-59
2021/06/20 08:52:12;;;;;;;7.82;7.03;;;34.60;76.30;;;33.73;46.05;100195.97;5045345;28;20069;-60
2021/06/20 08:54:38;;;;;;;9.60;7.68;;;34.60;76.00;;;33.43;46.85;100193.97;5064487;28;20044;-61
2021/06/20 08:57:07;;;;;;;15.40;8.35;;;34.50;75.90;;;33.48;46.80;100194.66;5066850;28;20039;-61
2021/06/20 08:59:33;;;;;;;10.65;7.10;;;34.50;76.90;;;33.59;47.12;100187.91;5066383;28;20376;-61
2021/06/20 09:01:59;;;;;;;8.15;7.35;;;34.40;77.00;;;33.97;46.22;100184.13;5066923;28;20206;-61
2021/06/20 09:04:36;;;;;;;10.23;6.85;;;34.70;76.80;;;33.95;46.12;100182.53;5066611;28;20099;-60
2021/06/20 09:07:04;;;;;;;12.13;7.90;;;34.70;76.60;;;33.41;47.89;100179.97;5068828;28;20068;-60
2021/06/20 09:09:36;;;;;;;8.88;7.47;;;34.20;77.40;;;33.27;47.71;100178.06;5069934;28;20060;-60
2021/06/20 09:12:12;;;;;;;8.15;7.35;;;34.20;77.20;;;33.09;47.90;100178.97;5070102;28;20032;-60
2021/06/20 09:14:48;;;;;;;9.00;7.75;;;33.90;77.50;;;33.53;46.78;100170.25;5069753;28;20527;-61
2021/06/20 09:17:28;;;;;;;9.45;7.20;;;34.10;77.00;;;34.02;45.66;100170.50;5051857;28;20048;-61
2021/06/20 09:19:59;;;;;;;14.82;8.32;;;34.60;75.80;;;33.95;45.52;100163.59;5069808;28;20250;-61
2021/06/20 09:22:26;;;;;;;10.35;7.35;;;34.70;75.00;;;34.04;45.27;100162.84;5069731;28;20028;-61
2021/06/20 09:25:05;;;;;;;11.18;7.20;;;34.70;74.70;;;34.06;45.33;100166.03;5070048;28;20044;-61
2021/06/20 09:27:32;;;;;;;8.88;7.75;;;34.70;74.50;;;34.12;44.98;100162.09;5069890;28;20056;-60
2021/06/20 09:30:15;;;;;;;10.77;8.00;;;34.70;74.20;;;34.59;44.74;100169.56;5069481;28;20457;-60
2021/06/20 09:33:06;;;;;;;8.18;7.43;;;35.00;74.70;;;34.50;44.73;100167.94;5069158;28;20037;-61
2021/06/20 09:35:43;;;;;;;12.75;7.60;;;35.20;73.40;;;33.84;46.59;100173.06;5087749;28;20028;-61
2021/06/20 09:38:27;;;;;;;13.20;7.47;;;34.80;74.60;;;34.08;45.24;100172.72;5090456;28;20123;-61
2021/06/20 09:41:11;;;;;;;9.25;7.72;;;34.70;74.60;;;34.26;45.19;100160.13;5063324;28;20055;-61
2021/06/20 09:43:59;;;;;;;12.82;8.75;;;34.70;74.70;;;33.54;46.27;100171.03;5089827;28;20158;-61
2021/06/20 09:46:26;;;;;;;9.23;8.15;;;34.40;74.50;;;32.94;48.54;100166.59;5088970;28;20113;-62
2021/06/20 09:48:52;;;;;;;10.68;8.50;;;33.90;75.70;;;33.06;47.95;100166.09;5089044;28;20039;-61
2021/06/20 09:51:30;;;;;;;9.60;8.68;;;33.80;76.10;;;32.68;48.53;100165.44;5089100;28;20396;-61
2021/06/20 09:53:56;;;;;;;12.13;8.60;;;33.40;76.80;;;32.53;48.97;100168.44;5071457;28;20048;-61
2021/06/20 09:56:23;;;;;;;9.98;9.15;;;33.30;77.10;;;32.29;49.29;100176.66;5089416;28;20424;-61
2021/06/20 09:59:05;;;;;;;11.45;10.13;;;33.00;77.90;;;32.58;46.94;100165.66;5089208;28;20056;-61
2021/06/20 10:01:35;;;;;;;11.25;9.00;;;33.10;75.70;;;32.64;46.81;100151.75;5089292;28;20112;-61
2021/06/20 10:04:02;;;;;;;12.77;10.43;;;33.10;76.10;;;32.57;47.19;100148.66;5070874;28;20036;-62
2021/06/20 10:06:28;;;;;;;9.18;8.00;;;33.10;76.00;;;33.40;46.12;100143.25;5089218;28;20020;-61
2021/06/20 10:08:54;;;;;;;13.32;7.85;;;33.70;75.80;;;34.09;44.68;100136.50;5089199;28;20103;-61
2021/06/20 10:11:21;;;;;;;12.45;8.27;;;34.40;74.20;;;33.93;44.65;100135.28;5070972;28;20811;-61